createdAt,value
2023-03-11T00:01:09.679Z,85.43
2023-03-11T00:02:09.761Z,84.94
2023-03-11T00:05:09.718Z,86.26
2023-03-11T00:07:09.615Z,84.87
2023-03-11T00:08:09.617Z,84.97
2023-03-11T00:09:09.593Z,84.14
2023-03-11T00:10:09.593Z,84.60
2023-03-11T00:12:09.571Z,85.05
2023-03-11T00:13:09.554Z,84.94
2023-03-11T00:14:09.542Z,84.63
2023-03-11T00:15:09.528Z,85.15
2023-03-11T00:16:09.550Z,85.22
2023-03-11T00:17:09.510Z,84.70
2023-03-11T00:18:09.526Z,84.84
2023-03-11T00:20:09.480Z,84.28
2023-03-11T00:21:09.468Z,83.97
2023-03-11T00:22:09.456Z,84.18
2023-03-11T00:23:09.444Z,84.35
2023-03-11T00:24:09.437Z,83.83
2023-03-11T00:25:09.427Z,83.56
2023-03-11T00:26:09.412Z,84.35
2023-03-11T00:27:09.403Z,83.94
2023-03-11T00:28:09.404Z,83.56
2023-03-11T00:29:09.378Z,84.49
2023-03-11T00:30:09.369Z,83.94
2023-03-11T00:31:09.396Z,83.56
2023-03-11T00:32:09.348Z,83.87
2023-03-11T00:36:09.328Z,83.83
2023-03-11T00:37:09.300Z,83.25
2023-03-11T00:38:09.306Z,83.66
2023-03-11T00:39:09.278Z,83.87
2023-03-11T00:40:09.261Z,83.83
2023-03-11T00:41:09.256Z,83.63
2023-03-11T00:43:09.229Z,83.00
2023-03-11T00:44:09.219Z,83.31
2023-03-11T00:46:09.223Z,82.96
2023-03-11T00:47:09.193Z,82.90
2023-03-11T00:48:09.205Z,83.21
2023-03-11T00:49:09.165Z,83.42
2023-03-11T00:50:09.174Z,83.14
2023-03-11T00:54:09.117Z,83.52
2023-03-11T00:57:09.077Z,83.63
2023-03-11T00:58:09.073Z,83.77
2023-03-11T00:59:09.061Z,83.56
2023-03-11T01:00:09.052Z,83.77
2023-03-11T01:02:09.027Z,83.35
2023-03-11T01:03:09.017Z,83.39
2023-03-11T01:04:09.067Z,84.39
2023-03-11T01:05:08.992Z,83.97
2023-03-11T01:06:09.006Z,84.08
2023-03-11T01:10:08.944Z,84.28
2023-03-11T01:11:08.931Z,84.11
2023-03-11T01:12:08.920Z,84.49
2023-03-11T01:13:08.913Z,83.77
2023-03-11T01:14:08.903Z,83.87
2023-03-11T01:15:08.889Z,83.77
2023-03-11T01:16:08.975Z,83.52
2023-03-11T01:20:08.835Z,82.66
2023-03-11T01:21:08.820Z,83.77
2023-03-11T01:22:08.831Z,83.28
2023-03-11T01:28:08.747Z,83.35
2023-03-11T01:32:08.708Z,82.80
2023-03-11T01:33:08.693Z,82.90
2023-03-11T01:34:08.683Z,82.80
2023-03-11T01:37:08.644Z,82.69
2023-03-11T01:38:08.663Z,82.00
2023-03-11T01:39:08.635Z,82.83
2023-03-11T01:40:08.616Z,82.83
2023-03-11T01:42:08.595Z,82.96
2023-03-11T01:43:08.591Z,82.30
2023-03-11T01:44:08.574Z,81.40
2023-03-11T01:47:08.540Z,82.73
2023-03-11T01:48:08.530Z,82.48
2023-03-11T01:49:08.518Z,82.48
2023-03-11T01:51:08.494Z,82.03
2023-03-11T01:53:08.480Z,81.86
2023-03-11T01:57:08.430Z,82.52
2023-03-11T01:58:08.429Z,81.69
2023-03-11T02:00:08.415Z,81.48
2023-03-11T02:01:08.394Z,81.07
2023-03-11T02:02:08.462Z,80.34
2023-03-11T02:03:08.470Z,80.34
2023-03-11T02:05:08.340Z,79.82
2023-03-11T02:07:08.326Z,80.34
2023-03-11T02:10:08.308Z,81.17
2023-03-11T02:11:08.282Z,81.79
2023-03-11T02:12:08.283Z,81.28
2023-03-11T02:14:08.251Z,81.59
2023-03-11T02:16:08.244Z,81.45
2023-03-11T02:17:08.217Z,81.07
2023-03-11T02:18:08.218Z,81.38
2023-03-11T02:19:08.197Z,81.28
2023-03-11T02:20:08.188Z,81.62
2023-03-11T02:21:08.179Z,82.25
2023-03-11T02:22:08.167Z,82.66
2023-03-11T02:24:08.152Z,82.04
2023-03-11T02:25:08.137Z,82.52
2023-03-11T02:26:08.149Z,81.42
2023-03-11T02:27:08.132Z,82.04
2023-03-11T02:28:08.107Z,81.69
2023-03-11T02:29:08.092Z,81.79
2023-03-11T02:30:08.091Z,81.17
2023-03-11T02:31:08.171Z,82.07
2023-03-11T02:32:08.065Z,80.76
2023-03-11T02:33:08.057Z,81.48
2023-03-11T02:34:08.045Z,80.96
2023-03-11T02:35:08.046Z,80.90
2023-03-11T02:42:08.005Z,82.21
2023-03-11T02:43:07.954Z,81.17
2023-03-11T02:50:07.879Z,80.96
2023-03-11T02:51:07.884Z,81.31
2023-03-11T02:52:07.846Z,81.35
2023-03-11T02:53:07.836Z,81.76
2023-03-11T03:04:07.833Z,80.24
2023-03-11T03:08:07.680Z,80.13
2023-03-11T03:09:07.677Z,80.34
2023-03-11T03:10:07.648Z,80.65
2023-03-11T03:11:07.654Z,79.99
2023-03-11T03:12:07.628Z,79.30
2023-03-11T03:13:07.617Z,79.30
2023-03-11T03:14:07.642Z,79.54
2023-03-11T03:16:07.748Z,79.44
2023-03-11T03:17:07.722Z,80.03
2023-03-11T03:18:07.567Z,79.19
2023-03-11T03:19:07.554Z,79.44
2023-03-11T03:20:07.544Z,79.54
2023-03-11T03:21:07.532Z,79.09
2023-03-11T03:22:07.520Z,78.47
2023-03-11T03:23:07.511Z,78.47
2023-03-11T03:24:07.501Z,78.16
2023-03-11T03:25:07.491Z,78.78
2023-03-11T03:33:07.407Z,79.02
2023-03-11T03:34:07.393Z,79.33
2023-03-11T03:35:07.384Z,79.51
2023-03-11T03:36:07.507Z,78.99
2023-03-11T03:37:07.367Z,78.88
2023-03-11T03:38:07.350Z,78.57
2023-03-11T03:39:07.342Z,78.30
2023-03-11T03:40:07.332Z,78.99
2023-03-11T03:41:07.324Z,78.26
2023-03-11T03:44:07.285Z,79.09
2023-03-11T03:45:07.286Z,79.27
2023-03-11T03:46:07.403Z,78.96
2023-03-11T03:47:07.271Z,78.13
2023-03-11T03:48:07.242Z,77.85
2023-03-11T03:49:07.232Z,78.57
2023-03-11T03:50:07.227Z,78.88
2023-03-11T03:51:07.210Z,78.47
2023-03-11T03:52:07.258Z,78.05
2023-03-11T03:53:07.191Z,78.47
2023-03-11T03:55:07.173Z,78.26
2023-03-11T03:56:07.160Z,77.85
2023-03-11T03:57:07.150Z,77.57
2023-03-11T03:58:07.141Z,78.05
2023-03-11T03:59:07.154Z,77.81
2023-03-11T04:04:07.074Z,77.30
2023-03-11T04:05:07.067Z,77.40
2023-03-11T04:06:07.050Z,77.71
2023-03-11T04:07:07.052Z,77.50
2023-03-11T04:08:07.032Z,77.50
2023-03-11T04:09:07.024Z,77.30
2023-03-11T04:10:07.012Z,77.50
2023-03-11T04:11:07.003Z,77.40
2023-03-11T04:12:06.990Z,77.30
2023-03-11T04:13:06.981Z,77.40
2023-03-11T04:14:06.966Z,77.50
2023-03-11T04:15:06.961Z,77.64
2023-03-11T04:16:06.947Z,77.88
2023-03-11T04:17:07.061Z,77.88
2023-03-11T04:18:06.974Z,78.40
2023-03-11T04:19:06.928Z,78.26
2023-03-11T04:20:06.904Z,78.16
2023-03-11T04:21:06.904Z,77.64
2023-03-11T04:22:06.893Z,77.85
2023-03-11T04:23:06.873Z,77.57
2023-03-11T04:24:06.867Z,77.47
2023-03-11T04:25:06.858Z,77.78
2023-03-11T04:26:06.842Z,77.85
2023-03-11T04:27:06.832Z,77.36
2023-03-11T04:28:06.820Z,77.71
2023-03-11T04:29:06.813Z,78.82
2023-03-11T04:30:06.800Z,78.71
2023-03-11T04:31:06.863Z,78.68
2023-03-11T04:32:06.778Z,77.85
2023-03-11T04:33:06.763Z,77.85
2023-03-11T04:35:06.740Z,77.33
2023-03-11T04:36:06.747Z,77.02
2023-03-11T04:37:06.725Z,77.74
2023-03-11T04:38:06.707Z,77.74
2023-03-11T04:39:06.704Z,77.12
2023-03-11T04:40:06.684Z,77.22
2023-03-11T04:41:06.679Z,77.64
2023-03-11T04:42:06.663Z,77.43
2023-03-11T04:49:06.596Z,76.39
2023-03-11T04:50:06.607Z,76.12
2023-03-11T04:51:06.565Z,77.02
2023-03-11T04:52:06.557Z,76.29
2023-03-11T04:53:06.561Z,76.22
2023-03-11T04:54:06.530Z,76.60
2023-03-11T04:56:06.518Z,75.87
2023-03-11T04:57:06.502Z,76.19
2023-03-11T05:00:06.467Z,76.50
2023-03-11T05:01:06.507Z,76.39
2023-03-11T05:02:06.445Z,76.33
2023-03-11T05:03:06.473Z,76.43
2023-03-11T05:04:06.423Z,76.22
2023-03-11T05:05:06.415Z,76.15
2023-03-11T05:06:06.439Z,76.05
2023-03-11T05:07:06.406Z,77.16
2023-03-11T05:08:06.384Z,76.50
2023-03-11T05:09:06.384Z,75.70
2023-03-11T05:10:06.364Z,75.81
2023-03-11T05:14:06.318Z,76.19
2023-03-11T05:17:06.286Z,76.70
2023-03-11T05:19:06.268Z,76.78
2023-03-11T05:20:06.270Z,77.47
2023-03-11T05:21:06.246Z,76.64
2023-03-11T05:22:06.259Z,76.53
2023-03-11T05:23:06.220Z,76.50
2023-03-11T05:24:06.209Z,76.08
2023-03-11T05:27:06.180Z,76.33
2023-03-11T05:29:06.161Z,76.95
2023-03-11T05:30:06.147Z,76.33
2023-03-11T05:31:06.177Z,76.64
2023-03-11T05:32:06.127Z,76.33
2023-03-11T05:33:06.116Z,76.43
2023-03-11T05:34:06.103Z,77.16
2023-03-11T05:35:06.097Z,76.43
2023-03-11T05:36:06.135Z,75.91
2023-03-11T05:37:06.079Z,75.87
2023-03-11T05:38:06.093Z,75.67
2023-03-11T05:39:06.056Z,75.87
2023-03-11T05:43:06.023Z,74.70
2023-03-11T05:44:06.008Z,74.42
2023-03-11T05:45:05.993Z,74.11
2023-03-11T05:46:06.054Z,74.21
2023-03-11T05:47:05.976Z,75.15
2023-03-11T05:50:05.940Z,74.32
2023-03-11T05:51:05.931Z,74.49
2023-03-11T05:52:05.928Z,73.77
2023-03-11T05:53:05.926Z,74.39
2023-03-11T05:54:05.916Z,73.35
2023-03-11T05:55:05.887Z,72.94
2023-03-11T05:56:05.884Z,73.90
2023-03-11T05:57:05.867Z,74.39
2023-03-11T05:58:05.884Z,74.39
2023-03-11T06:02:05.807Z,74.67
2023-03-11T06:03:05.800Z,75.39
2023-03-11T06:04:05.883Z,75.04
2023-03-11T06:05:08.300Z,73.90
2023-03-11T06:06:05.765Z,74.21
2023-03-11T06:07:05.769Z,74.32
2023-03-11T06:08:05.745Z,74.04
2023-03-11T06:09:05.735Z,74.77
2023-03-11T06:10:05.748Z,74.63
2023-03-11T06:11:05.711Z,74.15
2023-03-11T06:12:05.700Z,73.84
2023-03-11T06:13:05.691Z,74.04
2023-03-11T06:14:05.687Z,74.67
2023-03-11T06:15:05.667Z,74.73
2023-03-11T06:16:05.711Z,73.21
2023-03-11T06:17:05.647Z,72.76
2023-03-11T06:18:05.639Z,73.18
2023-03-11T06:19:05.628Z,72.73
2023-03-11T06:21:05.610Z,73.04
2023-03-11T06:23:05.584Z,73.21
2023-03-11T06:24:05.572Z,72.83
2023-03-11T06:25:05.559Z,73.25
2023-03-11T06:26:05.573Z,73.46
2023-03-11T06:27:05.542Z,72.83
2023-03-11T06:28:05.529Z,72.63
2023-03-11T06:29:05.520Z,72.45
2023-03-11T06:30:05.509Z,72.86
2023-03-11T06:35:05.469Z,73.04
2023-03-11T06:36:05.481Z,72.24
2023-03-11T06:37:05.434Z,72.24
2023-03-11T06:38:05.422Z,73.15
2023-03-11T06:39:05.412Z,72.69
2023-03-11T06:42:05.401Z,72.66
2023-03-11T06:43:05.369Z,71.63
2023-03-11T06:44:05.355Z,71.76
2023-03-11T06:45:05.355Z,71.97
2023-03-11T06:46:05.381Z,72.14
2023-03-11T06:48:05.317Z,72.32
2023-03-11T06:50:05.304Z,72.18
2023-03-11T06:55:05.242Z,72.07
2023-03-11T06:56:05.228Z,71.55
2023-03-11T06:57:05.220Z,71.63
2023-03-11T06:58:05.234Z,71.63
2023-03-11T06:59:05.203Z,70.80
2023-03-11T07:00:05.219Z,70.41
2023-03-11T07:02:05.167Z,71.11
2023-03-11T07:03:05.155Z,71.17
2023-03-11T07:05:05.142Z,70.45
2023-03-11T07:06:06.684Z,69.73
2023-03-11T07:10:05.082Z,70.66
2023-03-11T07:11:05.102Z,69.94
2023-03-11T07:12:06.724Z,69.62
2023-03-11T07:13:05.046Z,69.24
2023-03-11T07:14:05.060Z,68.96
2023-03-11T07:20:04.974Z,68.35
2023-03-11T07:22:04.954Z,67.31
2023-03-11T07:29:04.875Z,66.48
2023-03-11T07:31:04.855Z,67.44
2023-03-11T07:32:04.883Z,68.79
2023-03-11T07:33:04.833Z,68.28
2023-03-11T07:42:04.742Z,68.66
2023-03-11T07:43:04.720Z,67.96
2023-03-11T07:45:04.705Z,68.97
2023-03-11T07:46:04.801Z,68.45
2023-03-11T07:47:04.677Z,67.10
2023-03-11T07:48:04.683Z,67.21
2023-03-11T07:49:04.656Z,67.76
2023-03-11T07:50:04.665Z,68.24
2023-03-11T07:51:04.635Z,68.18
2023-03-11T07:53:04.614Z,66.98
2023-03-11T07:54:04.608Z,65.43
2023-03-11T07:55:04.600Z,65.85
2023-03-11T07:56:04.592Z,65.43
2023-03-11T08:05:04.507Z,64.58
2023-03-11T08:06:04.472Z,63.23
2023-03-11T08:07:04.461Z,63.98
2023-03-11T08:08:04.454Z,64.60
2023-03-11T08:09:04.443Z,63.98
2023-03-11T08:10:04.441Z,64.06
2023-03-11T08:11:04.420Z,63.33
2023-03-11T08:12:04.411Z,61.88
2023-03-11T08:13:04.402Z,61.86
2023-03-11T08:14:04.390Z,61.52
2023-03-11T08:16:04.412Z,62.11
2023-03-11T08:17:04.382Z,61.95
2023-03-11T08:18:04.368Z,60.02
2023-03-11T08:21:04.309Z,62.01
2023-03-11T08:24:06.724Z,59.68
2023-03-11T08:25:04.264Z,59.12
2023-03-11T08:26:04.254Z,59.43
2023-03-11T08:29:04.236Z,58.01
2023-03-11T08:37:04.136Z,59.63
2023-03-11T08:38:04.129Z,57.03
2023-03-11T08:39:04.187Z,58.64
2023-03-11T08:41:04.099Z,55.56
2023-03-11T08:45:04.047Z,55.12
2023-03-11T08:47:04.027Z,56.75
2023-03-11T08:49:03.999Z,54.55
2023-03-11T08:50:04.013Z,56.28
2023-03-11T08:56:03.922Z,54.15
2023-03-11T08:57:03.908Z,54.15
2023-03-11T08:58:03.905Z,54.45
2023-03-11T08:59:03.925Z,56.59
2023-03-11T09:01:03.889Z,55.95
2023-03-11T09:02:03.861Z,54.35
2023-03-11T09:03:03.917Z,54.01
2023-03-11T09:04:03.840Z,57.28
2023-03-11T09:06:03.923Z,55.07
2023-03-11T09:07:03.804Z,56.05
2023-03-11T09:08:05.388Z,54.81
2023-03-11T09:09:03.782Z,54.63
2023-03-11T09:10:03.771Z,53.30
2023-03-11T09:11:03.758Z,54.94
2023-03-11T09:12:03.750Z,53.58
2023-03-11T09:13:03.737Z,54.02
2023-03-11T09:14:03.727Z,54.71
2023-03-11T09:15:03.715Z,56.95
2023-03-11T09:16:03.726Z,54.17
2023-03-11T09:17:03.692Z,54.60
2023-03-11T09:27:03.590Z,54.43
2023-03-11T09:28:03.581Z,52.88
2023-03-11T09:29:03.570Z,52.08
2023-03-11T09:31:03.578Z,54.68
2023-03-11T09:32:03.529Z,54.45
2023-03-11T09:33:03.523Z,54.55
2023-03-11T09:34:03.513Z,55.46
2023-03-11T09:35:03.498Z,51.98
2023-03-11T09:36:03.630Z,51.75
2023-03-11T09:37:03.476Z,54.04
2023-03-11T09:40:03.440Z,54.35
2023-03-11T09:41:03.434Z,51.81
2023-03-11T09:42:03.423Z,52.27
2023-03-11T09:43:03.413Z,54.12
2023-03-11T09:44:03.403Z,55.87
2023-03-11T09:46:03.383Z,50.00
2023-03-11T09:47:03.533Z,50.62
2023-03-11T09:48:03.355Z,52.03
2023-03-11T09:49:03.348Z,48.46
2023-03-11T09:50:03.332Z,47.76
2023-03-11T09:51:03.324Z,49.79
2023-03-11T09:54:03.309Z,50.62
2023-03-11T09:57:03.256Z,50.54
2023-03-11T09:58:03.261Z,50.75
2023-03-11T10:00:03.223Z,49.79
2023-03-11T10:01:03.209Z,50.88
2023-03-11T10:02:03.242Z,47.72
2023-03-11T10:03:03.235Z,50.39
2023-03-11T10:07:03.176Z,48.10
2023-03-11T10:08:03.140Z,46.34
2023-03-11T10:09:03.124Z,47.42
2023-03-11T10:10:03.136Z,47.42
2023-03-11T10:11:03.103Z,49.68
2023-03-11T10:12:03.100Z,48.47
2023-03-11T10:13:03.080Z,50.42
2023-03-11T10:14:03.070Z,50.61
2023-03-11T10:15:03.056Z,48.37
2023-03-11T10:16:03.086Z,48.62
2023-03-11T10:17:03.036Z,52.66
2023-03-11T10:18:03.024Z,48.32
2023-03-11T10:19:03.022Z,49.45
2023-03-11T10:20:03.012Z,49.41
2023-03-11T10:21:02.991Z,47.60
2023-03-11T10:22:02.988Z,45.51
2023-03-11T10:23:02.972Z,46.83
2023-03-11T10:24:02.960Z,48.01
2023-03-11T10:25:02.949Z,49.28
2023-03-11T10:26:02.957Z,49.16
2023-03-11T10:27:02.933Z,51.72
2023-03-11T10:28:02.919Z,51.41
2023-03-11T10:29:02.905Z,50.69
2023-03-11T10:30:02.895Z,52.08
2023-03-11T10:32:02.872Z,48.29
2023-03-11T10:33:02.860Z,49.27
2023-03-11T10:34:02.853Z,46.50
2023-03-11T10:35:02.840Z,46.68
2023-03-11T10:36:02.845Z,46.78
2023-03-11T10:37:02.814Z,46.82
2023-03-11T10:38:02.806Z,45.37
2023-03-11T10:39:02.793Z,43.62
2023-03-11T10:40:02.781Z,44.03
2023-03-11T10:41:02.772Z,43.34
2023-03-11T10:42:02.787Z,43.56
2023-03-11T10:43:02.751Z,45.88
2023-03-11T10:45:02.743Z,44.07
2023-03-11T10:46:02.769Z,46.19
2023-03-11T10:47:02.705Z,47.31
2023-03-11T10:48:02.696Z,45.90
2023-03-11T10:49:02.687Z,45.58
2023-03-11T10:50:02.680Z,47.44
2023-03-11T10:51:02.668Z,45.58
2023-03-11T10:52:02.664Z,47.83
2023-03-11T10:53:02.644Z,48.35
2023-03-11T10:54:02.630Z,49.34
2023-03-11T10:55:02.622Z,49.09
2023-03-11T10:56:02.609Z,46.89
2023-03-11T10:58:02.611Z,46.78
2023-03-11T10:59:02.579Z,47.96
2023-03-11T11:00:02.572Z,49.19
2023-03-11T11:01:02.561Z,48.31
2023-03-11T11:02:02.545Z,50.63
2023-03-11T11:03:02.532Z,46.62
2023-03-11T11:04:02.622Z,46.39
2023-03-11T11:05:02.527Z,48.59
2023-03-11T11:06:02.510Z,47.85
2023-03-11T11:07:02.491Z,47.48
2023-03-11T11:08:02.482Z,46.15
2023-03-11T11:09:02.467Z,45.43
2023-03-11T11:10:02.461Z,45.37
2023-03-11T11:11:02.456Z,45.97
2023-03-11T11:12:02.451Z,45.76
2023-03-11T11:13:02.445Z,46.25
2023-03-11T11:14:02.451Z,44.36
2023-03-11T11:15:02.405Z,43.68
2023-03-11T11:16:02.406Z,43.46
2023-03-11T11:17:02.457Z,43.24
2023-03-11T11:19:02.369Z,41.93
2023-03-11T11:20:02.354Z,43.30
2023-03-11T11:21:02.373Z,44.67
2023-03-11T11:22:02.335Z,43.54
2023-03-11T11:23:02.328Z,43.62
2023-03-11T11:24:02.313Z,44.71
2023-03-11T11:25:02.358Z,44.18
2023-03-11T11:31:02.314Z,40.50
2023-03-11T11:32:02.221Z,42.40
2023-03-11T11:33:02.212Z,42.32
2023-03-11T11:34:02.200Z,43.34
2023-03-11T11:36:02.179Z,40.86
2023-03-11T11:38:02.163Z,40.20
2023-03-11T11:39:02.153Z,41.98
2023-03-11T11:40:02.135Z,42.00
2023-03-11T11:43:02.102Z,42.95
2023-03-11T11:44:02.097Z,44.92
2023-03-11T11:45:02.137Z,42.66
2023-03-11T11:49:02.037Z,41.45
2023-03-11T11:50:02.026Z,41.35
2023-03-11T11:51:02.024Z,42.02
2023-03-11T11:53:02.008Z,42.87
2023-03-11T11:54:01.980Z,42.31
2023-03-11T11:55:01.969Z,42.13
2023-03-11T11:56:01.958Z,44.14
2023-03-11T11:57:01.947Z,39.29
2023-03-11T11:58:01.934Z,38.23
2023-03-11T11:59:01.929Z,38.81
2023-03-11T12:01:01.900Z,39.10
2023-03-11T12:09:01.813Z,37.99
2023-03-11T12:10:12.862Z,38.84
2023-03-11T12:11:02.825Z,38.72
2023-03-11T12:12:01.777Z,39.17
2023-03-11T12:13:01.766Z,41.25
2023-03-11T12:14:01.766Z,40.45
2023-03-11T12:15:01.742Z,35.25
2023-03-11T12:16:01.730Z,36.49
2023-03-11T12:17:03.902Z,40.28
2023-03-11T12:18:01.769Z,36.49
2023-03-11T12:19:01.709Z,35.77
2023-03-11T12:20:01.690Z,37.13
2023-03-11T12:21:01.680Z,36.74
2023-03-11T12:22:01.667Z,35.55
2023-03-11T12:23:01.688Z,37.12
2023-03-11T12:24:01.647Z,38.45
2023-03-11T12:25:01.644Z,40.27
2023-03-11T12:26:01.639Z,42.05
2023-03-11T12:29:01.598Z,38.97
2023-03-11T12:31:01.645Z,40.34
2023-03-11T12:32:01.574Z,38.81
2023-03-11T12:33:01.553Z,39.56
2023-03-11T12:34:01.572Z,39.61
2023-03-11T12:40:01.482Z,38.76
2023-03-11T12:43:01.448Z,39.13
2023-03-11T12:44:01.433Z,40.58
2023-03-11T12:45:01.429Z,39.44
2023-03-11T12:48:01.390Z,42.24
2023-03-11T12:52:01.362Z,41.32
2023-03-11T12:53:01.347Z,40.24
2023-03-11T12:54:01.330Z,41.79
2023-03-11T12:55:01.378Z,39.06
2023-03-11T12:56:01.305Z,40.00
2023-03-11T12:57:01.297Z,41.21
2023-03-11T12:58:01.306Z,40.60
2023-03-11T12:59:01.287Z,40.03
2023-03-11T13:00:01.277Z,38.67
2023-03-11T13:01:01.272Z,40.19
2023-03-11T13:02:01.294Z,41.05
2023-03-11T13:03:01.298Z,43.36
2023-03-11T13:04:01.220Z,40.20
2023-03-11T13:05:01.217Z,41.47
2023-03-11T13:06:01.217Z,43.06
2023-03-11T13:09:01.175Z,36.40
2023-03-11T13:11:01.150Z,36.18
2023-03-11T13:12:01.144Z,36.34
2023-03-11T13:13:01.125Z,34.24
2023-03-11T13:14:01.123Z,35.47
2023-03-11T13:15:02.583Z,34.66
2023-03-11T13:16:01.129Z,34.98
2023-03-11T13:17:01.090Z,36.85
2023-03-11T13:18:01.073Z,36.37
2023-03-11T13:19:01.064Z,37.34
2023-03-11T13:20:01.047Z,36.66
2023-03-11T13:21:01.045Z,37.87
2023-03-11T13:22:01.053Z,36.74
2023-03-11T13:24:01.009Z,37.09
2023-03-11T13:25:00.998Z,39.54
2023-03-11T13:27:04.008Z,39.95
2023-03-11T13:28:00.973Z,37.79
2023-03-11T13:29:00.962Z,38.18
2023-03-11T13:30:00.947Z,38.23
2023-03-11T13:31:00.930Z,40.01
2023-03-11T13:32:00.927Z,38.29
2023-03-11T13:34:00.908Z,37.48
2023-03-11T13:35:00.885Z,39.22
2023-03-11T13:37:00.869Z,37.63
2023-03-11T13:38:00.882Z,36.61
2023-03-11T13:39:00.851Z,37.34
2023-03-11T13:41:00.828Z,38.62
2023-03-11T13:46:00.869Z,38.91
2023-03-11T13:47:00.767Z,38.95
2023-03-11T13:48:00.749Z,39.48
2023-03-11T13:50:00.736Z,39.19
2023-03-11T13:51:00.716Z,40.61
2023-03-11T13:52:00.704Z,39.22
2023-03-11T13:53:00.695Z,38.62
2023-03-11T13:54:00.698Z,39.34
2023-03-11T13:55:00.676Z,40.36
2023-03-11T13:56:00.660Z,40.75
2023-03-11T13:58:00.641Z,42.21
2023-03-11T13:59:00.636Z,39.87
2023-03-11T14:00:00.615Z,40.27
2023-03-11T14:01:00.727Z,40.33
2023-03-11T14:02:00.598Z,40.67
2023-03-11T14:03:00.589Z,41.70
2023-03-11T14:04:00.604Z,40.64
2023-03-11T14:05:00.575Z,41.54
2023-03-11T14:08:00.528Z,38.28
2023-03-11T14:10:00.527Z,38.19
2023-03-11T14:11:00.502Z,39.84
2023-03-11T14:12:00.482Z,38.43
2023-03-11T14:21:00.388Z,36.81
2023-03-11T14:22:00.381Z,36.49
2023-03-11T14:23:00.367Z,35.90
2023-03-11T14:24:00.346Z,37.26
2023-03-11T14:25:00.338Z,38.81
2023-03-11T14:26:00.350Z,37.80
2023-03-11T14:27:00.318Z,37.90
2023-03-11T14:28:00.305Z,38.74
2023-03-11T14:30:00.287Z,36.95
2023-03-11T14:34:00.241Z,36.47
2023-03-11T14:35:00.224Z,39.03
2023-03-11T14:36:00.272Z,37.87
2023-03-11T14:37:00.203Z,37.63
2023-03-11T14:38:00.191Z,36.27
2023-03-11T14:47:00.158Z,37.51
2023-03-11T14:48:00.106Z,37.02
2023-03-11T14:49:00.087Z,36.49
2023-03-11T14:50:00.072Z,38.84
2023-03-11T14:51:00.059Z,39.23
2023-03-11T14:52:00.050Z,39.25
2023-03-11T14:57:59.999Z,40.44
2023-03-11T14:59:07.272Z,39.86
2023-03-11T14:59:59.948Z,40.89
2023-03-11T15:00:59.996Z,40.31
2023-03-11T15:01:59.933Z,40.96
2023-03-11T15:02:59.992Z,41.37
2023-03-11T15:05:59.898Z,38.94
2023-03-11T15:06:59.880Z,36.80
2023-03-11T15:07:59.885Z,36.76
2023-03-11T15:08:59.897Z,35.36
2023-03-11T15:09:59.876Z,36.03
2023-03-11T15:11:02.048Z,35.27
2023-03-11T15:11:59.849Z,34.88
2023-03-11T15:12:59.819Z,35.27
2023-03-11T15:13:59.826Z,33.94
2023-03-11T15:14:59.811Z,33.75
2023-03-11T15:15:59.773Z,34.09
2023-03-11T15:16:59.842Z,36.87
2023-03-11T15:17:59.778Z,37.80
2023-03-11T15:18:59.743Z,38.01
2023-03-11T15:19:59.738Z,38.19
2023-03-11T15:20:59.728Z,38.28
2023-03-11T15:21:59.798Z,37.26
2023-03-11T15:22:59.700Z,37.89
2023-03-11T15:23:59.686Z,39.95
2023-03-11T15:24:59.676Z,38.31
2023-03-11T15:28:59.638Z,39.39
2023-03-11T15:29:59.649Z,39.44
2023-03-11T15:30:59.661Z,40.78
2023-03-11T15:31:59.599Z,38.23
2023-03-11T15:32:59.588Z,38.17
2023-03-11T15:33:59.578Z,41.77
2023-03-11T15:34:59.567Z,40.94
2023-03-11T15:35:59.613Z,40.49
2023-03-11T15:36:59.605Z,40.92
2023-03-11T15:37:59.541Z,41.41
2023-03-11T15:38:59.525Z,43.03
2023-03-11T15:39:59.523Z,42.54
2023-03-11T15:40:59.532Z,43.56
2023-03-11T15:44:59.494Z,42.76
2023-03-11T15:45:59.560Z,43.60
2023-03-11T15:47:59.429Z,43.29
2023-03-11T15:49:59.406Z,45.12
2023-03-11T15:51:59.385Z,42.85
2023-03-11T15:52:59.382Z,42.91
2023-03-11T15:53:59.360Z,42.81
2023-03-11T15:54:59.349Z,41.58
2023-03-11T15:56:06.552Z,40.86
2023-03-11T15:56:59.325Z,42.40
2023-03-11T15:57:59.322Z,40.13
2023-03-11T15:58:59.303Z,40.22
2023-03-11T15:59:59.295Z,41.00
2023-03-11T16:00:59.280Z,37.65
2023-03-11T16:01:59.295Z,38.28
2023-03-11T16:02:59.258Z,39.61
2023-03-11T16:03:59.386Z,39.70
2023-03-11T16:04:59.421Z,40.39
2023-03-11T16:05:59.225Z,39.44
2023-03-11T16:07:08.002Z,38.96
2023-03-11T16:08:00.235Z,38.64
2023-03-11T16:10:59.169Z,39.37
2023-03-11T16:11:59.163Z,38.67
2023-03-11T16:12:59.150Z,39.83
2023-03-11T16:13:59.154Z,40.45
2023-03-11T16:14:59.135Z,41.51
2023-03-11T16:15:59.236Z,40.94
2023-03-11T16:16:59.102Z,40.94
2023-03-11T16:17:59.133Z,42.27
2023-03-11T16:18:59.086Z,41.14
2023-03-11T16:19:59.072Z,42.93
2023-03-11T16:20:59.059Z,42.90
2023-03-11T16:21:59.050Z,42.72
2023-03-11T16:22:59.045Z,43.54
2023-03-11T16:24:59.015Z,44.26
2023-03-11T16:25:59.006Z,44.06
2023-03-11T16:26:58.996Z,42.08
2023-03-11T16:27:58.991Z,42.99
2023-03-11T16:29:09.129Z,43.81
2023-03-11T16:29:58.963Z,43.29
2023-03-11T16:30:59.023Z,42.60
2023-03-11T16:31:58.943Z,43.29
2023-03-11T16:32:58.940Z,42.15
2023-03-11T16:33:58.949Z,43.05
2023-03-11T16:34:58.908Z,42.15
2023-03-11T16:35:58.951Z,43.75
2023-03-11T16:37:58.887Z,43.93
2023-03-11T16:39:58.856Z,43.44
2023-03-11T16:40:58.844Z,44.87
2023-03-11T16:41:58.835Z,45.41
2023-03-11T16:42:58.823Z,44.92
2023-03-11T16:43:58.814Z,46.36
2023-03-11T16:44:58.806Z,44.92
2023-03-11T16:45:58.805Z,45.74
2023-03-11T16:46:58.799Z,45.53
2023-03-11T16:47:58.814Z,45.35
2023-03-11T16:48:58.768Z,45.35
2023-03-11T16:49:58.768Z,46.07
2023-03-11T16:50:58.743Z,45.86
2023-03-11T16:51:58.803Z,45.68
2023-03-11T16:52:58.719Z,45.89
2023-03-11T16:53:58.708Z,45.14
2023-03-11T16:55:58.705Z,45.62
2023-03-11T16:56:58.688Z,46.11
2023-03-11T16:58:58.666Z,44.59
2023-03-11T16:59:58.664Z,44.16
2023-03-11T17:01:58.681Z,46.36
2023-03-11T17:03:58.615Z,46.97
2023-03-11T17:05:58.604Z,50.47
2023-03-11T17:06:58.571Z,51.68
2023-03-11T17:07:58.583Z,50.16
2023-03-11T17:08:58.546Z,49.96
2023-03-11T17:09:58.540Z,47.63
2023-03-11T17:10:58.527Z,50.00
2023-03-11T17:11:58.514Z,50.42
2023-03-11T17:12:58.521Z,49.26
2023-03-11T17:14:10.112Z,49.88
2023-03-11T17:14:59.511Z,48.44
2023-03-11T17:17:58.461Z,48.33
2023-03-11T17:18:58.439Z,48.54
2023-03-11T17:19:58.496Z,48.13
2023-03-11T17:20:58.419Z,49.38
2023-03-11T17:21:58.432Z,48.61
2023-03-11T17:22:58.397Z,49.53
2023-03-11T17:23:58.387Z,49.43
2023-03-11T17:24:58.380Z,49.71
2023-03-11T17:26:00.091Z,49.41
2023-03-11T17:26:58.364Z,50.03
2023-03-11T17:27:58.355Z,50.67
2023-03-11T17:29:58.350Z,52.13
2023-03-11T17:30:58.311Z,51.25
2023-03-11T17:34:58.271Z,51.12
2023-03-11T17:35:58.311Z,51.97
2023-03-11T17:36:58.247Z,51.77
2023-03-11T17:37:58.255Z,53.86
2023-03-11T17:41:58.193Z,56.15
2023-03-11T17:42:58.182Z,55.97
2023-03-11T17:43:58.180Z,56.49
2023-03-11T17:45:58.149Z,56.82
2023-03-11T17:46:58.208Z,56.20
2023-03-11T17:47:58.157Z,58.58
2023-03-11T17:49:58.107Z,60.24
2023-03-11T17:50:58.093Z,61.68
2023-03-11T17:51:58.083Z,62.27
2023-03-11T17:52:58.076Z,63.03
2023-03-11T17:53:58.093Z,62.61
2023-03-11T17:54:58.053Z,62.61
2023-03-11T17:55:58.040Z,64.16
2023-03-11T17:56:58.024Z,64.91
2023-03-11T17:57:58.017Z,64.19
2023-03-11T17:58:58.007Z,64.19
2023-03-11T17:59:57.998Z,63.98
2023-03-11T18:00:57.992Z,63.70
2023-03-11T18:01:58.059Z,63.08
2023-03-11T18:02:57.965Z,64.04
2023-03-11T18:03:57.977Z,64.45
2023-03-11T18:04:57.935Z,65.18
2023-03-11T18:05:57.935Z,67.56
2023-03-11T18:06:57.917Z,68.39
2023-03-11T18:07:57.908Z,68.39
2023-03-11T18:08:57.896Z,68.39
2023-03-11T18:09:57.908Z,68.08
2023-03-11T18:10:57.876Z,67.77
2023-03-11T18:11:57.870Z,68.29
2023-03-11T18:12:57.852Z,68.08
2023-03-11T18:13:57.844Z,67.98
2023-03-11T18:14:57.832Z,67.80
2023-03-11T18:15:57.823Z,68.63
2023-03-11T18:16:57.810Z,69.35
2023-03-11T18:17:57.804Z,68.93
2023-03-11T18:18:57.792Z,68.53
2023-03-11T18:19:57.785Z,69.25